Time;durP1;ratioP1;P1;durP2;ratioP2;P2;SDS_P1;SDS_P2;PMS_P1;PMS_P2;Temp;Humidity;BMP_temperature;BMP_pressure;BME280_temperature;BME280_humidity;BME280_pressure;Samples;Min_cycle;Max_cycle;Signal;HPM_P1;HPM_P2
2022/10/07 00:01:11;;;;;;;2.05;1.30;;;;;;;;;;5024857;28;20053;-89
2022/10/07 00:03:40;;;;;;;3.35;1.33;;;;;;;;;;5024332;28;20081;-89
2022/10/07 00:06:11;;;;;;;2.53;1.13;;;;;;;;;;5015696;28;20042;-88
2022/10/07 00:08:41;;;;;;;2.20;1.08;;;;;;;;;;5028641;28;20049;-89
2022/10/07 00:11:10;;;;;;;2.33;1.15;;;;;;;;;;5020779;28;20643;-91
2022/10/07 00:13:40;;;;;;;2.38;1.63;;;;;;;;;;5020021;28;20045;-88
2022/10/07 00:16:09;;;;;;;3.78;1.23;;;;;;;;;;5022791;28;20426;-88
2022/10/07 00:18:40;;;;;;;2.03;1.08;;;;;;;;;;5021411;28;20052;-88
2022/10/07 00:21:09;;;;;;;3.00;1.30;;;;;;;;;;5006879;28;20061;-89
2022/10/07 00:23:37;;;;;;;1.80;1.10;;;;;;;;;;5008379;28;20391;-89
2022/10/07 00:26:06;;;;;;;1.30;1.00;;;;;;;;;;5019111;28;20045;-88
2022/10/07 00:28:35;;;;;;;2.85;1.05;;;;;;;;;;5013471;28;20050;-88
2022/10/07 00:31:05;;;;;;;2.65;1.20;;;;;;;;;;5019903;28;20078;-89
2022/10/07 00:33:35;;;;;;;0.50;0.50;;;;;;;;;;5018077;28;20112;-89
2022/10/07 00:36:08;;;;;;;1.65;1.10;;;;;;;;;;5013227;28;20490;-88
2022/10/07 00:38:36;;;;;;;1.42;0.77;;;;;;;;;;5016415;28;20134;-89
2022/10/07 00:41:05;;;;;;;2.88;1.55;;;;;;;;;;5012255;28;20064;-89
2022/10/07 00:43:33;;;;;;;12.48;1.17;;;;;;;;;;5011174;28;20054;-89
2022/10/07 00:46:05;;;;;;;1.20;0.80;;;;;;;;;;5022378;28;20052;-88
2022/10/07 00:48:35;;;;;;;3.53;0.88;;;;;;;;;;5010581;28;20049;-89
2022/10/07 00:51:04;;;;;;;0.80;0.68;;;;;;;;;;5012513;28;20046;-88
2022/10/07 00:53:34;;;;;;;3.05;1.35;;;;;;;;;;5008568;28;20418;-90
2022/10/07 00:56:03;;;;;;;3.38;0.68;;;;;;;;;;5012342;28;20053;-88
2022/10/07 00:58:33;;;;;;;1.48;0.80;;;;;;;;;;5010883;28;20042;-88
2022/10/07 01:01:02;;;;;;;0.93;0.68;;;;;;;;;;5015192;28;20505;-89
2022/10/07 01:03:32;;;;;;;0.90;0.80;;;;;;;;;;5014122;28;20059;-88
2022/10/07 01:06:00;;;;;;;1.58;1.10;;;;;;;;;;5005652;28;20053;-88
2022/10/07 01:08:29;;;;;;;1.02;0.88;;;;;;;;;;5014237;28;20050;-89
2022/10/07 01:11:12;;;;;;;1.00;0.80;;;;;;;;;;5008158;28;20050;-90
2022/10/07 01:13:42;;;;;;;1.55;0.82;;;;;;;;;;5018307;28;20046;-88
2022/10/07 01:16:14;;;;;;;1.88;1.17;;;;;;;;;;5011037;28;20536;-88
2022/10/07 01:18:46;;;;;;;1.42;0.80;;;;;;;;;;5007153;28;20260;-88
2022/10/07 01:21:19;;;;;;;1.75;0.93;;;;;;;;;;5009932;28;20065;-89
2022/10/07 01:23:56;;;;;;;1.45;1.02;;;;;;;;;;5016599;28;20038;-87
2022/10/07 01:26:39;;;;;;;2.22;1.15;;;;;;;;;;5010364;28;20513;-87
2022/10/07 01:29:10;;;;;;;2.17;0.80;;;;;;;;;;5014930;28;20042;-88
2022/10/07 01:31:42;;;;;;;1.73;0.80;;;;;;;;;;5007018;28;20050;-87
2022/10/07 01:34:11;;;;;;;1.83;0.73;;;;;;;;;;5010923;28;20053;-87
2022/10/07 01:36:41;;;;;;;2.25;0.85;;;;;;;;;;5011671;28;20145;-87
2022/10/07 01:39:11;;;;;;;2.60;1.35;;;;;;;;;;5012149;28;20054;-86
2022/10/07 01:41:40;;;;;;;1.77;0.75;;;;;;;;;;5007657;28;20490;-88
2022/10/07 01:44:11;;;;;;;1.42;0.88;;;;;;;;;;5018759;28;20418;-86
2022/10/07 01:46:39;;;;;;;1.33;0.75;;;;;;;;;;5012069;28;20077;-87
2022/10/07 01:49:08;;;;;;;0.82;0.47;;;;;;;;;;5007620;28;20052;-86
2022/10/07 01:51:38;;;;;;;2.35;1.30;;;;;;;;;;5010292;28;20317;-87
2022/10/07 01:54:10;;;;;;;2.35;0.90;;;;;;;;;;5009622;28;20049;-87
2022/10/07 01:56:46;;;;;;;1.33;1.00;;;;;;;;;;5013093;28;20050;-86
2022/10/07 01:59:31;;;;;;;1.83;0.90;;;;;;;;;;5011910;28;20076;-87
2022/10/07 02:01:59;;;;;;;;;;;;;;;;;;5007309;28;20125;-87
2022/10/07 02:04:36;;;;;;;1.08;0.88;;;;;;;;;;5003379;28;19929;-87
2022/10/07 02:07:08;;;;;;;0.98;0.52;;;;;;;;;;5009538;28;20045;-87
2022/10/07 02:09:40;;;;;;;1.17;1.08;;;;;;;;;;5014434;28;20132;-87
2022/10/07 02:12:12;;;;;;;1.70;0.90;;;;;;;;;;5016809;28;20410;-87
2022/10/07 02:14:43;;;;;;;1.65;0.93;;;;;;;;;;5016250;28;20049;-87
2022/10/07 02:17:14;;;;;;;0.90;0.70;;;;;;;;;;5020529;28;20039;-87
2022/10/07 02:19:44;;;;;;;1.58;1.05;;;;;;;;;;5015511;28;20049;-87
2022/10/07 02:22:14;;;;;;;2.22;1.05;;;;;;;;;;5006100;28;20064;-87
2022/10/07 02:24:43;;;;;;;2.08;0.82;;;;;;;;;;5011065;28;20050;-87
2022/10/07 02:27:14;;;;;;;1.65;1.02;;;;;;;;;;5012098;28;20486;-88
2022/10/07 02:29:44;;;;;;;3.03;1.23;;;;;;;;;;5013914;28;20478;-86
2022/10/07 02:32:14;;;;;;;2.55;0.93;;;;;;;;;;5007201;28;20046;-87
2022/10/07 02:34:44;;;;;;;1.80;0.82;;;;;;;;;;5011912;28;20512;-87
2022/10/07 02:37:15;;;;;;;1.75;1.00;;;;;;;;;;5001772;28;20060;-87
2022/10/07 02:39:44;;;;;;;1.48;0.93;;;;;;;;;;5012646;28;20046;-87
2022/10/07 02:42:17;;;;;;;2.35;1.27;;;;;;;;;;5002940;28;20487;-90
2022/10/07 02:44:50;;;;;;;3.80;1.38;;;;;;;;;;5003884;28;20513;-87
2022/10/07 02:47:22;;;;;;;1.13;0.82;;;;;;;;;;5004955;28;20050;-87
2022/10/07 02:49:52;;;;;;;1.85;1.02;;;;;;;;;;5013600;28;20045;-88
2022/10/07 02:52:21;;;;;;;2.20;1.10;;;;;;;;;;5014460;28;20050;-87
2022/10/07 02:54:53;;;;;;;1.42;1.10;;;;;;;;;;5013637;28;20053;-87
2022/10/07 02:57:22;;;;;;;1.20;0.80;;;;;;;;;;5011338;28;20054;-87
2022/10/07 02:59:52;;;;;;;1.13;0.90;;;;;;;;;;5014025;28;20053;-86
2022/10/07 03:02:24;;;;;;;1.13;0.68;;;;;;;;;;5021542;28;20049;-87
2022/10/07 03:04:52;;;;;;;1.38;0.88;;;;;;;;;;5019474;28;20410;-87
2022/10/07 03:07:22;;;;;;;1.70;0.98;;;;;;;;;;5012049;28;20057;-88
2022/10/07 03:09:50;;;;;;;1.83;0.82;;;;;;;;;;5015782;28;20054;-87
2022/10/07 03:12:18;;;;;;;2.45;1.42;;;;;;;;;;5015601;28;20049;-87
2022/10/07 03:14:48;;;;;;;1.00;0.90;;;;;;;;;;5010225;28;20053;-87
2022/10/07 03:17:18;;;;;;;2.40;0.77;;;;;;;;;;5016428;28;20525;-87
2022/10/07 03:19:48;;;;;;;2.45;1.30;;;;;;;;;;5014815;28;20072;-90
2022/10/07 03:22:16;;;;;;;0.68;0.50;;;;;;;;;;5015121;28;20064;-87
2022/10/07 03:24:44;;;;;;;2.78;1.00;;;;;;;;;;5013454;28;20042;-87
2022/10/07 03:27:13;;;;;;;1.45;0.80;;;;;;;;;;5017184;28;20052;-87
2022/10/07 03:29:41;;;;;;;1.70;0.93;;;;;;;;;;5009758;28;20046;-87
2022/10/07 03:32:09;;;;;;;1.67;1.13;;;;;;;;;;5014379;28;20042;-88
2022/10/07 03:34:39;;;;;;;3.25;1.30;;;;;;;;;;5010701;28;20483;-86
2022/10/07 03:37:08;;;;;;;2.95;0.98;;;;;;;;;;5016414;28;20046;-86
2022/10/07 03:39:36;;;;;;;2.28;0.98;;;;;;;;;;5008492;28;20049;-87
2022/10/07 03:42:05;;;;;;;1.50;0.82;;;;;;;;;;5009715;28;20422;-88
2022/10/07 03:44:34;;;;;;;2.03;0.98;;;;;;;;;;5009752;28;20410;-87
2022/10/07 03:47:03;;;;;;;1.73;0.95;;;;;;;;;;5011578;28;20064;-88
2022/10/07 03:49:38;;;;;;;;;;;;;;;;;;5009817;28;20074;-87
2022/10/07 03:52:08;;;;;;;2.25;1.70;;;;;;;;;;5009788;28;19920;-87
2022/10/07 03:54:36;;;;;;;1.38;1.00;;;;;;;;;;5013923;28;20046;-86
2022/10/07 03:57:48;;;;;;;4.45;1.33;;;;;;;;;;5012696;28;20056;-86
2022/10/07 03:59:53;;;;;;;2.53;1.00;;;;;;;;;;5026370;28;20060;-87
2022/10/07 04:02:22;;;;;;;1.17;0.80;;;;;;;;;;5014155;28;20058;-87
2022/10/07 04:04:51;;;;;;;2.83;1.13;;;;;;;;;;5012433;28;20061;-87
2022/10/07 04:07:21;;;;;;;1.83;1.10;;;;;;;;;;5024035;28;20057;-87
2022/10/07 04:09:49;;;;;;;1.55;0.85;;;;;;;;;;5016978;28;20570;-87
2022/10/07 04:12:18;;;;;;;1.83;0.98;;;;;;;;;;5016767;28;20045;-86
2022/10/07 04:14:46;;;;;;;2.47;1.15;;;;;;;;;;5017634;28;20049;-87
2022/10/07 04:17:14;;;;;;;1.80;1.10;;;;;;;;;;5014833;28;20054;-87
2022/10/07 04:19:43;;;;;;;1.98;0.95;;;;;;;;;;5022860;28;20041;-87
2022/10/07 04:22:11;;;;;;;1.10;0.95;;;;;;;;;;5003589;28;20395;-87
2022/10/07 04:24:41;;;;;;;1.88;0.88;;;;;;;;;;5012126;28;20045;-87
2022/10/07 04:27:09;;;;;;;2.33;1.27;;;;;;;;;;5018047;28;20050;-87
2022/10/07 04:29:55;;;;;;;3.15;1.65;;;;;;;;;;5006035;28;20092;-87
2022/10/07 04:32:23;;;;;;;2.42;0.88;;;;;;;;;;5013422;28;20042;-89
2022/10/07 04:34:52;;;;;;;1.42;0.77;;;;;;;;;;5017853;28;20046;-88
2022/10/07 04:37:20;;;;;;;2.63;1.55;;;;;;;;;;5029070;28;20056;-88
2022/10/07 04:39:50;;;;;;;1.00;0.70;;;;;;;;;;5027164;28;20441;-90
2022/10/07 04:45:14;;;;;;;3.00;1.35;;;;;;;;;;5026832;28;20061;-86
2022/10/07 04:47:45;;;;;;;18.40;1.45;;;;;;;;;;5014144;28;20433;-88
2022/10/07 04:50:14;;;;;;;1.85;1.00;;;;;;;;;;5011182;28;20052;-86
2022/10/07 04:52:43;;;;;;;1.15;1.02;;;;;;;;;;5013135;28;20371;-86
2022/10/07 04:55:13;;;;;;;1.77;1.05;;;;;;;;;;5015049;28;20041;-86
2022/10/07 04:57:41;;;;;;;2.38;0.77;;;;;;;;;;5013605;28;20052;-86
2022/10/07 05:00:12;;;;;;;1.50;0.73;;;;;;;;;;5012977;28;20053;-87
2022/10/07 05:02:40;;;;;;;2.42;1.05;;;;;;;;;;5012642;28;20120;-86
2022/10/07 05:05:10;;;;;;;1.65;1.17;;;;;;;;;;5003535;28;20053;-89
2022/10/07 05:07:39;;;;;;;1.08;0.82;;;;;;;;;;5006020;28;20050;-90
2022/10/07 05:10:09;;;;;;;2.72;0.95;;;;;;;;;;5010518;28;20052;-88
2022/10/07 05:12:40;;;;;;;5.35;1.23;;;;;;;;;;5011850;28;20707;-90
2022/10/07 05:15:09;;;;;;;1.23;0.93;;;;;;;;;;5006328;28;20064;-88
2022/10/07 05:17:39;;;;;;;2.50;1.25;;;;;;;;;;5002138;28;20046;-88
2022/10/07 05:20:08;;;;;;;3.80;1.58;;;;;;;;;;5009610;28;20053;-87
2022/10/07 05:22:36;;;;;;;3.45;0.47;;;;;;;;;;5012851;28;20410;-89
2022/10/07 05:25:05;;;;;;;1.65;1.00;;;;;;;;;;5002247;28;20048;-89
2022/10/07 05:27:33;;;;;;;3.45;1.33;;;;;;;;;;5015259;28;20050;-89
2022/10/07 05:30:03;;;;;;;2.53;1.08;;;;;;;;;;5011011;28;20498;-90
2022/10/07 05:32:31;;;;;;;1.42;0.70;;;;;;;;;;5009095;28;20046;-89
2022/10/07 05:35:00;;;;;;;5.43;1.30;;;;;;;;;;5009958;28;20052;-90
2022/10/07 05:37:28;;;;;;;5.75;1.20;;;;;;;;;;5001837;28;20403;-89
2022/10/07 05:39:57;;;;;;;2.28;1.50;;;;;;;;;;5000418;28;20058;-91
2022/10/07 05:42:25;;;;;;;1.33;1.23;;;;;;;;;;5007337;28;20073;-90
2022/10/07 05:44:54;;;;;;;2.08;1.20;;;;;;;;;;5005737;28;20409;-90
2022/10/07 05:47:24;;;;;;;1.20;0.95;;;;;;;;;;4998416;28;20061;-90
2022/10/07 05:49:53;;;;;;;1.75;0.95;;;;;;;;;;5006038;28;20053;-91
2022/10/07 05:52:22;;;;;;;1.15;0.73;;;;;;;;;;5003640;28;20508;-90
2022/10/07 05:54:50;;;;;;;1.92;0.90;;;;;;;;;;5000045;28;20054;-92
2022/10/07 05:57:19;;;;;;;2.13;0.90;;;;;;;;;;5005336;28;20054;-95
2022/10/07 05:59:47;;;;;;;2.30;0.85;;;;;;;;;;4984998;28;20049;-90
2022/10/07 06:02:17;;;;;;;1.77;1.02;;;;;;;;;;5003372;28;20081;-90
2022/10/07 06:04:48;;;;;;;1.73;0.95;;;;;;;;;;5005978;28;20060;-90
2022/10/07 06:07:17;;;;;;;1.08;0.85;;;;;;;;;;5005251;28;20320;-90
2022/10/07 06:15:21;;;;;;;2.70;1.10;;;;;;;;;;5008454;28;20048;-90
2022/10/07 06:17:49;;;;;;;2.22;0.73;;;;;;;;;;5010509;28;20050;-90
2022/10/07 06:20:19;;;;;;;2.50;1.75;;;;;;;;;;5010130;28;20409;-90
2022/10/07 06:22:47;;;;;;;3.20;1.48;;;;;;;;;;5018078;28;20050;-90
2022/10/07 06:25:16;;;;;;;3.42;1.30;;;;;;;;;;5014388;28;20049;-90
2022/10/07 06:27:44;;;;;;;4.22;1.20;;;;;;;;;;5011303;28;20053;-90
2022/10/07 06:30:20;;;;;;;5.13;2.15;;;;;;;;;;5015322;28;20165;-90
2022/10/07 06:32:48;;;;;;;5.68;1.73;;;;;;;;;;5003340;28;20081;-90
2022/10/07 06:35:17;;;;;;;3.38;1.92;;;;;;;;;;5018034;28;20462;-90
2022/10/07 06:37:46;;;;;;;5.07;2.17;;;;;;;;;;5012207;28;20057;-91
2022/10/07 06:40:15;;;;;;;3.42;1.52;;;;;;;;;;5016224;28;20053;-88
2022/10/07 06:42:44;;;;;;;5.65;2.58;;;;;;;;;;5011955;28;20077;-91
2022/10/07 06:45:12;;;;;;;7.78;1.05;;;;;;;;;;5013138;28;20054;-89
2022/10/07 06:47:41;;;;;;;6.95;1.98;;;;;;;;;;5026783;28;20045;-91
2022/10/07 06:50:10;;;;;;;6.43;2.17;;;;;;;;;;5016958;28;20050;-90
2022/10/07 06:52:38;;;;;;;8.05;2.10;;;;;;;;;;5015089;28;20046;-89
2022/10/07 06:55:12;;;;;;;3.83;1.63;;;;;;;;;;5015626;28;20100;-89
2022/10/07 06:57:42;;;;;;;7.28;2.22;;;;;;;;;;5020834;28;20050;-90
2022/10/07 07:00:14;;;;;;;8.15;2.15;;;;;;;;;;5015322;28;20054;-90
2022/10/07 07:02:43;;;;;;;5.60;2.08;;;;;;;;;;5019871;28;20322;-90
2022/10/07 07:05:14;;;;;;;4.75;1.40;;;;;;;;;;5008885;28;20136;-87
2022/10/07 07:07:42;;;;;;;3.95;2.15;;;;;;;;;;5016041;28;20046;-90
2022/10/07 07:10:13;;;;;;;4.47;1.70;;;;;;;;;;5019929;28;20046;-90
2022/10/07 07:12:42;;;;;;;4.80;2.10;;;;;;;;;;5017055;28;20080;-90
2022/10/07 07:15:11;;;;;;;11.88;3.13;;;;;;;;;;5019659;28;20112;-90
2022/10/07 07:17:40;;;;;;;11.55;2.17;;;;;;;;;;5008525;28;20084;-90
2022/10/07 07:20:09;;;;;;;13.60;3.10;;;;;;;;;;5011268;28;20057;-89
2022/10/07 07:22:38;;;;;;;10.23;2.10;;;;;;;;;;5010663;28;20046;-89
2022/10/07 07:25:08;;;;;;;6.53;2.50;;;;;;;;;;5011166;28;20053;-90
2022/10/07 07:27:40;;;;;;;9.10;2.10;;;;;;;;;;5014590;28;20142;-89
2022/10/07 07:30:09;;;;;;;9.68;2.65;;;;;;;;;;5014127;28;20062;-90
2022/10/07 07:32:37;;;;;;;7.28;3.13;;;;;;;;;;5011424;28;20053;-87
2022/10/07 07:35:06;;;;;;;9.68;2.40;;;;;;;;;;5014019;28;20779;-87
2022/10/07 07:37:35;;;;;;;7.25;2.47;;;;;;;;;;5010468;28;20077;-86
2022/10/07 07:40:04;;;;;;;4.97;1.85;;;;;;;;;;5017094;28;20488;-89
2022/10/07 07:42:33;;;;;;;6.88;2.38;;;;;;;;;;5013523;28;20093;-89
2022/10/07 07:45:02;;;;;;;8.95;2.63;;;;;;;;;;5012715;28;20056;-89
2022/10/07 07:47:31;;;;;;;6.72;2.38;;;;;;;;;;5020125;28;20470;-89
2022/10/07 07:50:00;;;;;;;17.02;2.33;;;;;;;;;;5006372;28;20564;-89
2022/10/07 07:52:29;;;;;;;6.70;2.55;;;;;;;;;;5010579;28;20080;-89
2022/10/07 07:54:58;;;;;;;7.15;3.50;;;;;;;;;;5016436;28;20057;-89
2022/10/07 07:57:26;;;;;;;12.00;3.88;;;;;;;;;;5010495;28;20049;-89
2022/10/07 07:59:55;;;;;;;10.63;3.17;;;;;;;;;;5010605;28;20621;-89
2022/10/07 08:02:25;;;;;;;6.07;2.28;;;;;;;;;;5003885;28;20437;-89
2022/10/07 08:04:53;;;;;;;6.78;3.15;;;;;;;;;;5004575;28;20054;-89
2022/10/07 08:07:22;;;;;;;10.40;3.10;;;;;;;;;;5018305;28;20056;-87
2022/10/07 08:09:51;;;;;;;4.53;1.88;;;;;;;;;;5013804;28;20048;-89
2022/10/07 08:12:22;;;;;;;9.65;3.00;;;;;;;;;;5014415;28;20046;-89
2022/10/07 08:14:51;;;;;;;9.45;3.63;;;;;;;;;;5006781;28;20077;-89
2022/10/07 08:17:19;;;;;;;11.30;2.72;;;;;;;;;;5020179;28;20466;-89
2022/10/07 08:19:49;;;;;;;8.02;2.97;;;;;;;;;;5019341;28;20045;-89
2022/10/07 08:22:18;;;;;;;9.27;2.85;;;;;;;;;;5006200;28;20050;-88
2022/10/07 08:24:46;;;;;;;4.70;1.95;;;;;;;;;;5019378;28;20049;-88
2022/10/07 08:27:15;;;;;;;6.20;3.47;;;;;;;;;;5020289;28;20101;-89
2022/10/07 08:29:44;;;;;;;7.93;2.63;;;;;;;;;;5019197;28;20077;-89
2022/10/07 08:32:12;;;;;;;5.65;2.17;;;;;;;;;;5019920;28;20050;-90
2022/10/07 08:34:41;;;;;;;8.63;3.15;;;;;;;;;;5019826;28;20478;-89
2022/10/07 08:37:11;;;;;;;8.38;3.08;;;;;;;;;;5009284;28;20116;-89
2022/10/07 08:39:40;;;;;;;6.55;2.33;;;;;;;;;;5017679;28;20056;-89
2022/10/07 08:42:12;;;;;;;7.65;2.40;;;;;;;;;;5017967;28;20054;-89
2022/10/07 08:44:42;;;;;;;11.70;3.15;;;;;;;;;;5017672;28;20053;-90
2022/10/07 08:47:14;;;;;;;9.32;3.03;;;;;;;;;;5020004;28;20078;-89
2022/10/07 08:49:52;;;;;;;6.72;2.63;;;;;;;;;;5013721;28;20050;-92
2022/10/07 08:52:32;;;;;;;7.93;2.15;;;;;;;;;;5019358;28;20124;-89
2022/10/07 08:55:01;;;;;;;6.45;2.80;;;;;;;;;;5012444;28;20496;-89
2022/10/07 08:57:39;;;;;;;5.22;1.98;;;;;;;;;;5022828;28;20083;-90
2022/10/07 09:00:12;;;;;;;7.75;2.88;;;;;;;;;;5011478;28;20052;-89
2022/10/07 09:02:44;;;;;;;9.27;2.30;;;;;;;;;;5022667;28;20057;-89
2022/10/07 09:05:18;;;;;;;7.70;3.13;;;;;;;;;;5005297;28;20064;-90
2022/10/07 09:07:50;;;;;;;11.68;3.15;;;;;;;;;;5013937;28;20172;-90
2022/10/07 09:10:25;;;;;;;7.22;2.03;;;;;;;;;;5009890;28;20111;-89
2022/10/07 09:12:57;;;;;;;7.53;3.70;;;;;;;;;;5015261;28;20050;-90
2022/10/07 09:15:31;;;;;;;12.52;2.55;;;;;;;;;;5013900;28;20418;-89
2022/10/07 09:18:03;;;;;;;2.72;1.88;;;;;;;;;;5013138;28;20050;-89
2022/10/07 09:20:37;;;;;;;4.35;2.22;;;;;;;;;;5013021;28;20124;-90
2022/10/07 09:23:07;;;;;;;4.28;2.60;;;;;;;;;;5003342;28;20056;-89
2022/10/07 09:25:40;;;;;;;8.35;2.67;;;;;;;;;;5016277;28;20045;-90
2022/10/07 09:28:12;;;;;;;7.75;2.80;;;;;;;;;;5013664;28;20050;-89
2022/10/07 09:30:41;;;;;;;8.90;2.65;;;;;;;;;;5014194;28;20049;-90
2022/10/07 09:33:13;;;;;;;4.22;2.20;;;;;;;;;;5011374;28;20061;-89
2022/10/07 09:35:44;;;;;;;8.10;3.00;;;;;;;;;;5009495;28;20135;-90
2022/10/07 09:38:14;;;;;;;4.63;2.45;;;;;;;;;;5014993;28;20081;-90
2022/10/07 09:43:27;;;;;;;11.05;3.35;;;;;;;;;;5008573;28;20099;-90
2022/10/07 09:45:56;;;;;;;7.47;2.65;;;;;;;;;;5004786;28;20054;-90
2022/10/07 09:48:26;;;;;;;8.43;3.03;;;;;;;;;;5012529;28;20375;-90
2022/10/07 09:51:12;;;;;;;6.68;3.42;;;;;;;;;;5012551;28;20073;-90
2022/10/07 09:53:54;;;;;;;11.27;3.33;;;;;;;;;;5013108;28;20052;-90
2022/10/07 09:56:32;;;;;;;11.50;3.08;;;;;;;;;;5010011;28;20045;-90
2022/10/07 09:59:15;;;;;;;8.57;2.42;;;;;;;;;;5012930;28;20057;-89
2022/10/07 10:01:49;;;;;;;6.78;2.55;;;;;;;;;;5006779;28;20176;-89
2022/10/07 10:04:18;;;;;;;5.88;2.53;;;;;;;;;;5007015;28;20053;-90
2022/10/07 10:06:48;;;;;;;7.60;2.95;;;;;;;;;;5007582;28;20458;-89
2022/10/07 10:09:21;;;;;;;8.57;3.17;;;;;;;;;;5009189;28;20050;-89
2022/10/07 10:12:03;;;;;;;11.95;3.25;;;;;;;;;;5008206;28;20045;-90
2022/10/07 10:14:37;;;;;;;7.07;2.60;;;;;;;;;;5010292;28;20472;-90
2022/10/07 10:17:05;;;;;;;9.20;2.63;;;;;;;;;;5010147;28;20050;-90
2022/10/07 10:19:34;;;;;;;6.97;3.05;;;;;;;;;;5010195;28;20188;-90
2022/10/07 10:22:04;;;;;;;7.05;3.10;;;;;;;;;;5008642;28;20045;-91
2022/10/07 10:27:23;;;;;;;5.70;2.58;;;;;;;;;;5010098;28;20048;-89
2022/10/07 10:29:55;;;;;;;7.60;2.30;;;;;;;;;;5004068;28;20494;-92
2022/10/07 10:32:47;;;;;;;6.30;3.15;;;;;;;;;;5017145;28;20104;-92
2022/10/07 10:35:19;;;;;;;8.30;2.70;;;;;;;;;;4993710;28;20136;-92
2022/10/07 10:38:05;;;;;;;7.97;3.17;;;;;;;;;;5014453;28;20050;-91
2022/10/07 10:40:36;;;;;;;7.45;3.30;;;;;;;;;;5008662;28;20059;-91
2022/10/07 10:43:15;;;;;;;9.40;3.22;;;;;;;;;;5009973;28;20050;-90
2022/10/07 10:45:51;;;;;;;11.07;2.90;;;;;;;;;;5011868;28;20057;-89
2022/10/07 10:48:27;;;;;;;7.70;3.25;;;;;;;;;;5005184;28;20152;-89
2022/10/07 10:50:58;;;;;;;7.90;3.33;;;;;;;;;;5010545;28;20057;-90
2022/10/07 10:53:33;;;;;;;5.40;2.80;;;;;;;;;;5012259;28;20046;-90
2022/10/07 10:56:08;;;;;;;6.30;2.80;;;;;;;;;;5014478;28;20065;-90
2022/10/07 10:58:44;;;;;;;10.40;3.28;;;;;;;;;;5013946;28;20053;-90
2022/10/07 11:01:16;;;;;;;11.60;3.65;;;;;;;;;;4994283;28;20049;-89
2022/10/07 11:03:53;;;;;;;7.80;2.67;;;;;;;;;;4995290;28;20056;-89
2022/10/07 11:06:22;;;;;;;6.57;2.58;;;;;;;;;;5004105;28;20402;-89
2022/10/07 11:08:51;;;;;;;8.40;2.97;;;;;;;;;;5002403;28;20049;-90
2022/10/07 11:11:23;;;;;;;10.27;3.92;;;;;;;;;;5000666;28;20506;-89
2022/10/07 11:13:54;;;;;;;13.25;3.70;;;;;;;;;;5004110;28;20042;-89
2022/10/07 11:16:25;;;;;;;8.10;3.17;;;;;;;;;;5001849;28;20070;-89
2022/10/07 11:18:56;;;;;;;9.57;2.70;;;;;;;;;;5006659;28;20077;-89
2022/10/07 11:21:26;;;;;;;10.43;3.30;;;;;;;;;;5008157;28;20046;-90
2022/10/07 11:24:00;;;;;;;7.32;3.70;;;;;;;;;;5015956;28;20160;-88
2022/10/07 11:26:33;;;;;;;6.85;2.22;;;;;;;;;;5010165;28;20049;-88
2022/10/07 11:29:04;;;;;;;8.18;3.40;;;;;;;;;;5020511;28;20050;-91
2022/10/07 11:31:36;;;;;;;7.10;2.97;;;;;;;;;;5013722;28;20141;-90
2022/10/07 11:34:14;;;;;;;6.57;2.53;;;;;;;;;;5012762;28;20049;-89
2022/10/07 11:36:55;;;;;;;6.78;3.05;;;;;;;;;;5018713;28;20073;-89
2022/10/07 11:39:24;;;;;;;8.15;3.03;;;;;;;;;;5017341;28;20050;-95
2022/10/07 11:41:55;;;;;;;5.10;2.40;;;;;;;;;;5007968;28;20188;-91
2022/10/07 11:44:27;;;;;;;5.90;2.78;;;;;;;;;;4991947;28;20169;-92
2022/10/07 11:46:57;;;;;;;7.82;2.40;;;;;;;;;;5019009;28;20483;-90
2022/10/07 11:49:27;;;;;;;4.72;2.58;;;;;;;;;;5016920;28;20046;-90
2022/10/07 11:51:59;;;;;;;6.40;2.78;;;;;;;;;;5011601;28;20045;-91
2022/10/07 11:54:29;;;;;;;11.40;3.08;;;;;;;;;;5017806;28;20038;-90
2022/10/07 11:57:00;;;;;;;4.25;2.20;;;;;;;;;;5008265;28;20042;-91
2022/10/07 11:59:34;;;;;;;6.18;2.30;;;;;;;;;;5013738;28;20478;-90
2022/10/07 12:02:03;;;;;;;5.88;2.15;;;;;;;;;;5010456;28;20080;-90
2022/10/07 12:04:40;;;;;;;7.70;2.55;;;;;;;;;;5006105;28;20050;-90
2022/10/07 12:07:27;;;;;;;8.02;2.55;;;;;;;;;;5009077;28;20491;-90
2022/10/07 12:10:08;;;;;;;4.88;2.05;;;;;;;;;;5012867;28;20081;-90
2022/10/07 12:12:49;;;;;;;6.43;2.28;;;;;;;;;;5003253;28;20574;-91
2022/10/07 12:15:25;;;;;;;5.72;2.17;;;;;;;;;;5019690;28;20103;-89
2022/10/07 12:17:57;;;;;;;9.68;2.25;;;;;;;;;;5012011;28;20061;-90
2022/10/07 12:20:38;;;;;;;6.32;2.40;;;;;;;;;;5016626;28;20049;-90
2022/10/07 12:23:25;;;;;;;4.07;2.03;;;;;;;;;;5016633;28;20486;-89
2022/10/07 12:25:54;;;;;;;6.45;2.20;;;;;;;;;;5005700;28;20049;-90
2022/10/07 12:28:27;;;;;;;6.00;2.80;;;;;;;;;;5022353;28;20050;-89
2022/10/07 12:30:56;;;;;;;4.32;2.13;;;;;;;;;;5017629;28;20389;-90
2022/10/07 12:33:29;;;;;;;7.00;2.90;;;;;;;;;;5015390;28;20060;-89
2022/10/07 12:35:57;;;;;;;3.75;1.75;;;;;;;;;;5012766;28;20240;-88
2022/10/07 12:38:27;;;;;;;4.68;2.15;;;;;;;;;;5012622;28;20081;-90
2022/10/07 12:41:02;;;;;;;6.25;2.67;;;;;;;;;;5009940;28;20133;-89
2022/10/07 12:43:44;;;;;;;5.25;3.13;;;;;;;;;;5006771;28;20137;-90
2022/10/07 12:46:15;;;;;;;5.20;3.25;;;;;;;;;;5010892;28;20502;-90
2022/10/07 12:48:47;;;;;;;7.15;3.22;;;;;;;;;;5013511;28;20045;-89
2022/10/07 12:51:18;;;;;;;8.27;4.20;;;;;;;;;;4999375;28;20068;-87
2022/10/07 12:53:48;;;;;;;11.52;3.55;;;;;;;;;;5009720;28;20050;-90
2022/10/07 12:56:19;;;;;;;16.27;4.15;;;;;;;;;;4996385;28;20052;-90
2022/10/07 13:01:58;;;;;;;6.80;3.00;;;;;;;;;;5004019;28;20050;-88
2022/10/07 13:04:39;;;;;;;6.78;3.42;;;;;;;;;;5000034;28;20078;-89
2022/10/07 13:07:28;;;;;;;7.55;3.10;;;;;;;;;;5015865;28;20085;-90
2022/10/07 13:10:08;;;;;;;8.82;3.40;;;;;;;;;;5001592;28;20046;-90
2022/10/07 13:12:41;;;;;;;15.05;3.40;;;;;;;;;;5009674;28;20054;-86
2022/10/07 13:15:17;;;;;;;11.57;3.13;;;;;;;;;;5009584;28;20060;-88
2022/10/07 13:17:48;;;;;;;8.00;3.05;;;;;;;;;;5016794;28;20088;-89
2022/10/07 13:20:26;;;;;;;8.15;3.33;;;;;;;;;;5006531;28;20042;-89
2022/10/07 13:22:54;;;;;;;9.73;3.65;;;;;;;;;;5005357;28;20051;-86
2022/10/07 13:25:23;;;;;;;6.38;2.83;;;;;;;;;;5014045;28;20051;-87
2022/10/07 13:27:54;;;;;;;7.03;2.75;;;;;;;;;;5006733;28;20048;-89
2022/10/07 13:30:35;;;;;;;6.95;3.67;;;;;;;;;;5014329;28;20112;-90
2022/10/07 13:33:16;;;;;;;7.70;2.67;;;;;;;;;;5008279;28;20128;-88
2022/10/07 13:35:44;;;;;;;6.40;2.50;;;;;;;;;;5004628;28;20686;-89
2022/10/07 13:38:23;;;;;;;7.45;2.50;;;;;;;;;;5007164;28;20081;-89
2022/10/07 13:40:57;;;;;;;7.25;2.50;;;;;;;;;;4999237;28;20727;-89
2022/10/07 13:43:28;;;;;;;5.30;2.25;;;;;;;;;;4999036;28;20498;-90
2022/10/07 13:45:59;;;;;;;3.22;2.40;;;;;;;;;;5004755;28;20054;-90
2022/10/07 13:48:33;;;;;;;4.35;1.67;;;;;;;;;;5001564;28;20140;-90
2022/10/07 13:51:03;;;;;;;5.85;2.00;;;;;;;;;;5004287;28;20058;-89
2022/10/07 13:53:33;;;;;;;3.30;1.60;;;;;;;;;;5006163;28;20060;-90
2022/10/07 13:56:09;;;;;;;8.40;2.25;;;;;;;;;;4998889;28;20104;-90
2022/10/07 13:58:37;;;;;;;3.97;2.10;;;;;;;;;;5002253;28;20042;-91
2022/10/07 14:01:07;;;;;;;5.65;1.88;;;;;;;;;;4995975;28;20048;-91
2022/10/07 14:04:00;;;;;;;5.22;2.13;;;;;;;;;;5003260;28;20056;-91
2022/10/07 14:06:49;;;;;;;7.63;2.47;;;;;;;;;;4997647;28;20053;-91
2022/10/07 14:09:25;;;;;;;6.03;2.78;;;;;;;;;;4997116;28;20124;-90
2022/10/07 14:11:56;;;;;;;4.57;1.90;;;;;;;;;;5006040;28;20056;-91
2022/10/07 14:14:26;;;;;;;4.47;2.15;;;;;;;;;;4989209;28;20566;-91
2022/10/07 14:16:59;;;;;;;3.92;2.13;;;;;;;;;;4991758;28;20509;-91
2022/10/07 14:19:31;;;;;;;6.63;2.25;;;;;;;;;;5010579;28;20084;-92
2022/10/07 14:22:02;;;;;;;12.70;1.88;;;;;;;;;;5004628;28;20132;-90
2022/10/07 14:24:31;;;;;;;3.22;1.73;;;;;;;;;;4999213;28;20090;-90
2022/10/07 14:26:59;;;;;;;5.38;1.80;;;;;;;;;;5003072;28;20137;-91
2022/10/07 14:29:36;;;;;;;4.55;2.15;;;;;;;;;;5002692;28;20117;-90
2022/10/07 14:35:21;;;;;;;3.97;2.00;;;;;;;;;;5001564;28;20046;-91
2022/10/07 14:37:50;;;;;;;5.07;2.33;;;;;;;;;;4995312;28;20050;-91
2022/10/07 14:40:20;;;;;;;7.40;2.28;;;;;;;;;;4990508;28;20050;-92
2022/10/07 14:42:48;;;;;;;5.05;2.47;;;;;;;;;;4998692;28;20100;-91
2022/10/07 14:45:19;;;;;;;3.90;1.98;;;;;;;;;;5001826;28;20053;-90
2022/10/07 14:47:51;;;;;;;3.38;2.45;;;;;;;;;;5006175;28;20425;-90
2022/10/07 14:50:19;;;;;;;5.38;2.20;;;;;;;;;;5003025;28;20522;-90
2022/10/07 14:52:50;;;;;;;3.38;2.20;;;;;;;;;;5005792;28;20529;-91
2022/10/07 14:55:21;;;;;;;3.63;1.67;;;;;;;;;;5009915;28;20056;-91
2022/10/07 14:57:49;;;;;;;6.45;2.53;;;;;;;;;;4999095;28;20057;-89
2022/10/07 15:00:19;;;;;;;5.47;2.28;;;;;;;;;;5004965;28;20054;-89
2022/10/07 15:02:49;;;;;;;6.68;2.22;;;;;;;;;;5001711;28;20046;-90
2022/10/07 15:05:18;;;;;;;7.40;3.17;;;;;;;;;;5014808;28;20057;-90
2022/10/07 15:07:48;;;;;;;5.32;2.17;;;;;;;;;;5014571;28;20458;-90
2022/10/07 15:10:18;;;;;;;8.23;2.40;;;;;;;;;;5012454;28;20049;-90
2022/10/07 15:12:47;;;;;;;5.53;1.88;;;;;;;;;;5014187;28;20441;-90
2022/10/07 15:15:17;;;;;;;8.43;2.28;;;;;;;;;;5015088;28;20082;-87
2022/10/07 15:17:45;;;;;;;3.45;1.85;;;;;;;;;;5014079;28;20124;-90
2022/10/07 15:20:14;;;;;;;8.93;2.55;;;;;;;;;;5018869;28;20512;-88
2022/10/07 15:22:45;;;;;;;4.72;1.77;;;;;;;;;;5014929;28;20399;-90
2022/10/07 15:25:14;;;;;;;6.72;2.95;;;;;;;;;;5007460;28;20438;-89
2022/10/07 15:27:43;;;;;;;6.97;2.78;;;;;;;;;;5006001;28;20042;-89